createdAt,value
2023-02-24T06:06:35.545Z,6.25
2023-02-24T06:07:40.685Z,6.15
2023-02-24T06:08:42.645Z,5.90
2023-02-24T06:09:46.018Z,5.45
2023-02-24T06:10:48.888Z,5.60
2023-02-24T06:11:51.713Z,6.03
2023-02-24T06:27:45.302Z,5.30
2023-02-24T06:28:48.174Z,5.13
2023-02-24T06:30:59.227Z,4.78
2023-02-24T06:32:13.298Z,5.82
2023-02-24T06:34:24.440Z,6.45
2023-02-24T06:35:31.318Z,6.43
2023-02-24T06:36:33.295Z,5.63
2023-02-24T06:37:38.435Z,6.32
2023-02-24T06:38:41.577Z,5.75
2023-02-24T06:39:44.181Z,5.68
2023-02-24T06:40:47.611Z,5.15
2023-02-24T06:41:54.728Z,5.80
2023-02-24T06:42:56.497Z,5.30
2023-02-24T06:43:59.143Z,7.10
2023-02-24T06:45:07.547Z,8.40
2023-02-24T06:46:13.286Z,60.53
2023-02-24T06:47:18.091Z,43.92
2023-02-24T06:48:23.415Z,39.58
2023-02-24T06:49:25.091Z,34.30
2023-02-24T06:50:29.215Z,20.90
2023-02-24T06:51:32.965Z,16.45
2023-02-24T06:52:34.439Z,17.02
2023-02-24T06:53:36.818Z,16.65
2023-02-24T06:54:38.250Z,15.77
2023-02-24T06:55:40.281Z,12.40
2023-02-24T06:56:42.109Z,10.98
2023-02-24T06:57:46.574Z,10.05
2023-02-24T06:58:53.495Z,10.20
2023-02-24T06:59:59.121Z,9.10
2023-02-24T07:01:02.691Z,7.95
2023-02-24T07:02:04.224Z,7.80
2023-02-24T07:03:17.777Z,8.10
2023-02-24T07:04:20.920Z,7.20
2023-02-24T07:05:24.280Z,6.38
2023-02-24T07:06:27.582Z,6.18
2023-02-24T07:07:29.310Z,6.60
2023-02-24T07:08:31.232Z,6.83
2023-02-24T07:09:33.553Z,6.28
2023-02-24T07:10:37.340Z,6.57
2023-02-24T07:11:49.327Z,6.20
2023-02-24T07:12:55.205Z,6.80
2023-02-24T07:14:02.505Z,7.10
2023-02-24T07:15:07.839Z,7.22
2023-02-24T07:16:14.606Z,6.40
2023-02-24T07:17:19.357Z,6.22
2023-02-24T07:18:21.481Z,6.03
2023-02-24T07:19:25.026Z,6.45
2023-02-24T07:20:27.419Z,6.75
2023-02-24T07:21:30.309Z,7.03
2023-02-24T07:22:32.316Z,7.10
2023-02-24T07:23:37.265Z,6.07
2023-02-24T07:24:46.698Z,6.18
2023-02-24T07:25:50.679Z,5.40
2023-02-24T07:27:01.104Z,6.63
2023-02-24T07:28:53.625Z,6.43
2023-02-24T07:29:56.754Z,6.18
2023-02-24T07:30:58.794Z,6.53
2023-02-24T07:32:10.988Z,6.53
2023-02-24T08:14:34.399Z,5.40
2023-02-24T08:18:13.728Z,4.45
2023-02-24T08:19:23.607Z,3.80
2023-02-24T08:20:49.695Z,4.15
2023-02-24T08:22:18.528Z,3.97
2023-02-24T08:23:26.294Z,4.22
2023-02-24T08:24:38.852Z,3.42
2023-02-24T08:25:59.804Z,2.78
2023-02-24T08:27:15.034Z,2.70
2023-02-24T08:28:18.864Z,2.63
2023-02-24T08:29:22.037Z,3.40
2023-02-24T08:30:25.368Z,2.35
2023-02-24T08:31:28.295Z,2.10
2023-02-24T08:32:51.487Z,2.28
2023-02-24T08:34:26.541Z,2.05
2023-02-24T08:35:45.675Z,1.67
2023-02-24T08:36:59.975Z,1.70
2023-02-24T08:38:04.725Z,1.67
2023-02-24T08:39:11.356Z,2.17
2023-02-24T08:40:37.596Z,1.77
2023-02-24T08:42:00.894Z,1.70
2023-02-24T08:43:32.183Z,2.22
2023-02-24T08:44:58.016Z,2.25
2023-02-24T08:46:06.147Z,2.30
2023-02-24T08:47:14.233Z,2.53
2023-02-24T08:50:08.057Z,2.47
2023-02-24T08:51:12.539Z,2.35
2023-02-24T08:53:32.341Z,2.78
2023-02-24T08:54:34.696Z,2.85
2023-02-24T08:55:42.959Z,2.67
2023-02-24T08:56:50.020Z,2.60
2023-02-24T08:57:56.817Z,2.65
2023-02-24T08:59:06.548Z,3.05
2023-02-24T09:00:10.133Z,2.63
2023-02-24T09:01:20.388Z,2.90
2023-02-24T09:02:27.817Z,2.90
2023-02-24T09:03:38.118Z,2.92
2023-02-24T09:05:19.421Z,2.88
2023-02-24T09:06:55.620Z,3.20
2023-02-24T09:16:01.489Z,1.90
2023-02-24T09:23:09.149Z,2.25
2023-02-24T09:24:28.320Z,1.80
2023-02-24T09:25:57.643Z,1.90
2023-02-24T09:27:01.513Z,1.52
2023-02-24T09:28:25.062Z,1.70
2023-02-24T09:29:37.626Z,1.83
2023-02-24T09:30:54.163Z,2.35
2023-02-24T09:32:13.990Z,1.73
2023-02-24T09:33:30.914Z,1.65
2023-02-24T09:34:39.581Z,1.80
2023-02-24T09:35:42.908Z,1.85
2023-02-24T09:37:00.913Z,1.98
2023-02-24T09:38:07.068Z,1.60
2023-02-24T09:39:14.985Z,1.90
2023-02-24T09:40:16.899Z,1.65
2023-02-24T09:41:59.517Z,1.88
2023-02-24T09:43:11.771Z,1.58
2023-02-24T09:44:19.614Z,1.60
2023-02-24T09:45:33.807Z,1.63
2023-02-24T09:46:55.805Z,2.13
2023-02-24T09:49:40.549Z,2.10
2023-02-24T09:51:08.621Z,2.50
2023-02-24T09:52:17.287Z,2.25
2023-02-24T09:53:21.362Z,2.10
2023-02-24T09:54:36.810Z,1.60
2023-02-24T09:55:54.193Z,1.73
2023-02-24T09:57:09.191Z,2.10
2023-02-24T09:58:43.061Z,1.75
2023-02-24T10:00:24.267Z,1.70
2023-02-24T10:01:45.550Z,1.60
2023-02-24T10:03:01.319Z,1.80
2023-02-24T10:04:24.085Z,1.58
2023-02-24T10:05:40.570Z,1.52
2023-02-24T10:06:48.091Z,1.50
2023-02-24T10:07:55.759Z,1.77
2023-02-24T10:09:27.832Z,1.50
2023-02-24T10:10:46.450Z,1.75
2023-02-24T10:23:45.820Z,1.13
2023-02-24T10:25:09.624Z,1.80
2023-02-24T10:26:45.444Z,1.25
2023-02-24T10:28:10.561Z,1.33
2023-02-24T10:29:31.600Z,1.42
2023-02-24T10:31:02.333Z,0.90
2023-02-24T10:32:29.210Z,0.93
2023-02-24T10:33:53.892Z,0.90
2023-02-24T10:34:56.473Z,0.82
2023-02-24T10:36:09.422Z,1.17
2023-02-24T10:37:30.352Z,0.90
2023-02-24T10:38:35.130Z,0.90
2023-02-24T10:39:36.754Z,0.80
2023-02-24T10:41:00.283Z,1.10
2023-02-24T10:42:23.132Z,0.90
2023-02-24T10:43:44.481Z,0.90
2023-02-24T10:45:02.209Z,1.00
2023-02-24T10:46:26.363Z,0.88
2023-02-24T10:47:35.075Z,1.02
2023-02-24T10:48:42.349Z,1.30
2023-02-24T10:50:07.097Z,1.25
2023-02-24T10:51:11.573Z,1.50
2023-02-24T10:52:38.735Z,1.17
2023-02-24T10:54:01.674Z,1.25
2023-02-24T10:55:51.846Z,1.50
2023-02-24T10:57:34.821Z,1.40
2023-02-24T10:58:45.884Z,1.77
2023-02-24T11:00:17.156Z,1.52
2023-02-24T11:01:47.000Z,1.30
2023-02-24T11:03:31.397Z,1.92
2023-02-24T11:04:56.931Z,1.50
2023-02-24T11:06:20.112Z,1.83
2023-02-24T11:07:42.954Z,1.70
2023-02-24T11:09:08.364Z,1.75
2023-02-24T11:10:47.407Z,1.70
2023-02-24T11:12:07.737Z,1.80
2023-02-24T11:13:35.658Z,1.80
2023-02-24T11:15:08.127Z,1.92
2023-02-24T11:16:29.550Z,1.90
2023-02-24T11:17:33.492Z,2.03
2023-02-24T11:18:36.086Z,2.58
2023-02-24T11:19:45.908Z,2.70
2023-02-24T11:20:53.941Z,2.42
2023-02-24T11:21:58.501Z,2.80
2023-02-24T11:23:03.502Z,2.50
2023-02-24T11:24:06.000Z,2.63
2023-02-24T11:25:13.974Z,2.75
2023-02-24T14:55:28.676Z,3.15
2023-02-24T14:56:34.993Z,4.40
2023-02-24T14:57:51.941Z,5.75
2023-02-24T14:58:59.436Z,2.80
2023-02-24T15:00:26.399Z,3.22
2023-02-24T15:01:49.782Z,3.47
2023-02-24T15:03:56.817Z,2.72
2023-02-24T15:05:02.820Z,4.30
2023-02-24T15:06:08.009Z,3.85
2023-02-24T15:07:29.008Z,4.05
2023-02-24T15:08:35.384Z,4.70
2023-02-24T15:09:41.393Z,4.07
2023-02-24T15:10:46.474Z,3.50
2023-02-24T15:11:50.259Z,3.80
2023-02-24T15:13:21.698Z,4.15
2023-02-24T15:14:41.773Z,3.88
2023-02-24T15:15:43.868Z,3.70
2023-02-24T15:16:49.244Z,4.28
2023-02-24T15:17:57.476Z,4.40
2023-02-24T15:19:01.470Z,3.80
2023-02-24T15:20:09.222Z,3.47
2023-02-24T15:21:25.537Z,3.38
2023-02-24T15:22:33.271Z,3.50
2023-02-24T15:23:36.586Z,3.75
2023-02-24T15:24:38.482Z,3.60
2023-02-24T15:25:43.992Z,3.63
2023-02-24T15:27:04.329Z,4.15
2023-02-24T15:28:05.720Z,3.03
2023-02-24T15:29:19.960Z,3.90
2023-02-24T15:30:32.793Z,3.83
2023-02-24T15:31:36.348Z,3.90
2023-02-24T15:32:41.398Z,3.88
2023-02-24T15:33:44.367Z,4.22
2023-02-24T15:34:48.381Z,4.40
2023-02-24T15:36:02.006Z,4.63
2023-02-24T15:37:18.614Z,4.68
2023-02-24T15:38:25.003Z,4.18
2023-02-24T15:39:32.104Z,3.67
2023-02-24T15:40:33.752Z,4.68
2023-02-24T15:41:44.319Z,3.70
2023-02-24T15:42:50.558Z,4.10
2023-02-24T15:43:56.447Z,4.07
2023-02-24T15:45:00.491Z,4.43
2023-02-24T15:46:23.188Z,4.63
2023-02-24T15:47:29.793Z,4.43
2023-02-24T15:48:31.726Z,4.30
2023-02-24T15:49:33.886Z,4.10
2023-02-24T15:50:37.640Z,4.50
2023-02-24T15:51:43.036Z,3.90
2023-02-24T15:52:45.049Z,4.30
2023-02-24T15:53:50.936Z,4.60
2023-02-24T15:54:53.444Z,4.30
2023-02-24T15:55:55.835Z,4.15
2023-02-24T15:57:04.660Z,4.45
2023-02-24T15:58:12.125Z,5.07
2023-02-24T15:59:18.092Z,5.30
2023-02-24T16:00:21.849Z,4.38
2023-02-24T16:01:23.902Z,4.10
2023-02-24T16:02:25.770Z,4.43
2023-02-24T16:03:30.626Z,4.90
2023-02-24T16:04:33.038Z,4.20
2023-02-24T16:05:36.702Z,4.72
2023-02-24T16:06:41.836Z,4.38
2023-02-24T16:07:45.178Z,4.43
2023-02-24T16:08:54.047Z,4.43
2023-02-24T16:09:57.795Z,4.90
2023-02-24T16:11:00.185Z,4.55
2023-02-24T16:12:05.231Z,4.35
2023-02-24T16:13:08.760Z,4.80
2023-02-24T16:14:14.715Z,4.50
2023-02-24T16:15:20.220Z,4.65
2023-02-24T16:16:22.595Z,4.05
2023-02-24T16:17:43.277Z,4.60
2023-02-24T16:18:45.032Z,4.22
2023-02-24T16:19:46.505Z,4.30
2023-02-24T16:20:57.881Z,27.60
2023-02-24T16:22:00.792Z,4.72
2023-02-24T16:23:04.778Z,4.70
2023-02-24T16:24:07.028Z,4.80
2023-02-24T16:25:14.368Z,4.75
2023-02-24T16:26:18.657Z,4.32
2023-02-24T16:27:23.021Z,4.88
2023-02-24T16:28:31.719Z,5.47
2023-02-24T16:29:35.971Z,5.25
2023-02-24T16:30:37.995Z,5.47
2023-02-24T16:31:40.725Z,5.50
2023-02-24T16:32:45.299Z,5.13
2023-02-24T16:33:54.985Z,4.38
2023-02-24T16:34:57.783Z,4.00
2023-02-24T16:36:01.064Z,4.38
2023-02-24T16:37:05.198Z,7.22
2023-02-24T16:38:06.729Z,4.53
2023-02-24T16:39:09.963Z,4.03
2023-02-24T16:40:26.465Z,5.10
2023-02-24T16:57:18.297Z,3.58
2023-02-24T16:58:20.788Z,3.92
2023-02-24T16:59:22.842Z,4.22
2023-02-24T17:00:27.843Z,3.00
2023-02-24T17:01:35.286Z,2.70
2023-02-24T17:02:39.855Z,2.72
2023-02-24T17:03:43.348Z,2.40
2023-02-24T17:04:45.791Z,2.75
2023-02-24T17:05:48.635Z,2.72
2023-02-24T17:06:52.941Z,2.85
2023-02-24T17:07:56.151Z,3.47
2023-02-24T17:08:58.712Z,3.03
2023-02-24T17:10:00.802Z,3.38
2023-02-24T17:11:04.824Z,4.30
2023-02-24T17:12:06.821Z,4.68
2023-02-24T17:13:22.349Z,4.07
2023-02-24T17:14:25.110Z,3.90
2023-02-24T17:15:30.729Z,3.40
2023-02-24T17:16:35.419Z,3.25
2023-02-24T17:17:37.832Z,3.40
2023-02-24T17:18:39.395Z,3.25
2023-02-24T17:19:42.321Z,3.75
2023-02-24T17:20:43.852Z,3.38
2023-02-24T17:21:46.652Z,3.25
2023-02-24T17:22:48.851Z,3.20
2023-02-24T17:23:53.240Z,2.50
2023-02-24T17:24:57.430Z,2.50
2023-02-24T17:26:01.047Z,2.45
2023-02-24T17:27:04.734Z,2.47
2023-02-24T17:28:07.124Z,2.53
2023-02-24T17:29:09.913Z,2.83
2023-02-24T17:30:16.186Z,2.83
2023-02-24T17:31:19.006Z,3.13
2023-02-24T17:32:21.863Z,2.90
2023-02-24T17:33:23.801Z,2.35
2023-02-24T17:34:27.002Z,2.53
2023-02-24T17:35:29.513Z,3.10
2023-02-24T17:36:32.186Z,2.72
2023-02-24T17:37:38.184Z,2.70
2023-02-24T17:38:39.685Z,2.60
2023-02-24T17:39:41.253Z,2.72
2023-02-24T17:40:44.988Z,2.60
2023-02-24T17:41:48.570Z,2.47
2023-02-24T17:42:51.744Z,2.40
2023-02-24T17:43:54.366Z,2.45
2023-02-24T17:44:57.054Z,2.30
2023-02-24T17:46:01.865Z,2.35
2023-02-24T17:47:05.168Z,2.72
2023-02-24T17:48:07.365Z,3.10
2023-02-24T17:49:11.206Z,3.47
2023-02-24T17:50:15.454Z,2.67
2023-02-24T17:51:19.021Z,2.75
2023-02-24T17:52:21.373Z,2.70
2023-02-24T17:53:24.004Z,3.08
2023-02-24T17:54:25.779Z,3.00
2023-02-24T17:55:30.332Z,2.70
2023-02-24T17:56:33.001Z,4.32
2023-02-24T17:57:37.299Z,2.72
2023-02-24T17:58:39.236Z,2.60
2023-02-24T17:59:42.911Z,2.83
2023-02-24T18:00:44.900Z,2.42
2023-02-24T18:01:49.034Z,2.10
2023-02-24T18:02:55.609Z,2.17
2023-02-24T18:03:58.830Z,2.63
2023-02-24T18:05:05.395Z,3.55
2023-02-24T18:06:28.332Z,2.80
2023-02-24T18:07:30.032Z,2.42
2023-02-24T18:08:33.387Z,3.15
2023-02-24T18:09:38.430Z,2.20
2023-02-24T18:10:43.137Z,2.92
2023-02-24T18:11:46.007Z,2.13
2023-02-24T18:12:48.704Z,2.40
2023-02-24T18:13:57.261Z,2.10
2023-02-24T18:15:08.713Z,3.00
2023-02-24T18:16:11.851Z,2.55
2023-02-24T18:17:15.543Z,3.42
2023-02-24T18:18:20.191Z,4.63
2023-02-24T18:19:21.891Z,7.00
2023-02-24T18:20:23.869Z,3.10
2023-02-24T18:21:29.702Z,2.22
2023-02-24T18:22:31.920Z,2.58
2023-02-24T18:23:35.535Z,2.35
2023-02-24T18:24:41.809Z,2.30
2023-02-24T18:25:49.232Z,2.38
2023-02-24T18:26:50.820Z,2.53
2023-02-24T18:27:53.577Z,3.70
2023-02-24T18:28:57.432Z,3.10
2023-02-24T18:29:59.844Z,2.70
2023-02-24T18:31:03.463Z,3.42
2023-02-24T18:32:08.809Z,1.23
2023-02-24T18:33:11.060Z,1.60
2023-02-24T18:34:16.194Z,2.22
2023-02-24T18:35:22.262Z,1.63
2023-02-24T18:36:25.675Z,4.32
2023-02-24T18:37:30.338Z,3.80
2023-02-24T18:38:33.545Z,2.67
2023-02-24T18:39:38.110Z,2.10
2023-02-24T18:40:40.774Z,2.10
2023-02-24T18:41:43.125Z,1.50
2023-02-24T18:42:48.983Z,1.80
2023-02-24T18:43:51.628Z,1.63
2023-02-24T18:44:53.140Z,1.60
2023-02-24T18:46:04.102Z,1.00
2023-02-24T18:47:10.160Z,1.00
2023-02-24T18:48:11.824Z,4.82
2023-02-24T18:49:17.617Z,2.28
2023-02-24T18:50:21.059Z,1.50
2023-02-24T18:51:26.593Z,1.60
2023-02-24T18:52:31.517Z,1.85
2023-02-24T18:53:36.932Z,1.00
2023-02-24T18:54:40.223Z,1.20
2023-02-24T18:55:44.842Z,1.20
2023-02-24T18:56:47.490Z,2.05
2023-02-24T18:57:49.855Z,2.60
2023-02-24T18:58:54.020Z,3.55
2023-02-24T18:59:56.878Z,3.35
2023-02-24T19:00:59.824Z,5.38
2023-02-24T19:02:02.172Z,6.65
2023-02-24T19:03:07.229Z,6.43
2023-02-24T19:04:11.411Z,5.22
2023-02-24T19:05:15.495Z,5.05
2023-02-24T19:06:21.728Z,4.70
2023-02-24T19:07:23.810Z,2.20
2023-02-24T19:08:27.191Z,2.80
2023-02-24T19:09:28.657Z,2.47
2023-02-24T19:10:32.324Z,1.92
2023-02-24T19:11:38.562Z,2.10
2023-02-24T19:12:44.314Z,2.72
2023-02-24T19:13:58.608Z,2.13
2023-02-24T19:15:03.354Z,2.33
2023-02-24T19:16:15.221Z,2.13
2023-02-24T19:17:17.934Z,2.72
2023-02-24T19:18:22.163Z,2.92
2023-02-24T19:19:28.839Z,2.42
2023-02-24T19:20:33.264Z,2.20
2023-02-24T19:21:38.970Z,2.38
2023-02-24T19:22:44.930Z,2.30
2023-02-24T19:23:49.287Z,2.00
2023-02-24T19:24:56.892Z,2.58
2023-02-24T19:25:59.355Z,2.35
2023-02-24T19:27:01.907Z,1.45
2023-02-24T19:28:04.006Z,1.85
2023-02-24T19:29:10.009Z,2.10
2023-02-24T19:30:15.895Z,2.90
2023-02-24T19:31:19.711Z,2.90
2023-02-24T19:32:25.444Z,2.97
2023-02-24T19:33:27.942Z,2.17
2023-02-24T19:34:32.153Z,2.50
2023-02-24T19:35:35.144Z,3.55
2023-02-24T19:36:37.724Z,2.92
2023-02-24T19:37:40.932Z,2.70
2023-02-24T19:38:46.022Z,2.85
2023-02-24T19:39:50.173Z,3.50
2023-02-24T19:40:51.887Z,3.83
2023-02-24T19:41:56.404Z,4.00
2023-02-24T19:43:00.106Z,3.83
2023-02-24T19:44:05.473Z,4.22
2023-02-24T19:45:08.539Z,2.17
2023-02-24T19:46:15.256Z,2.90
2023-02-24T19:47:20.159Z,1.40
2023-02-24T19:48:24.430Z,2.40
2023-02-24T19:49:29.952Z,1.65
2023-02-24T19:50:34.848Z,2.03
2023-02-24T19:51:36.654Z,2.13
2023-02-24T19:52:41.949Z,2.00
2023-02-24T19:53:46.648Z,1.50
2023-02-24T19:54:49.137Z,1.25
2023-02-24T19:55:52.910Z,1.30
2023-02-24T19:56:57.376Z,1.45
2023-02-24T19:58:01.367Z,1.50
2023-02-24T19:59:06.646Z,1.50
2023-02-24T20:00:19.520Z,1.60
2023-02-24T20:01:22.236Z,1.80
2023-02-24T20:02:24.294Z,1.60
2023-02-24T20:03:28.964Z,1.50
2023-02-24T20:04:33.343Z,1.70
2023-02-24T20:05:40.053Z,1.85
2023-02-24T20:06:47.793Z,1.65
2023-02-24T20:07:53.492Z,1.70
2023-02-24T20:08:58.176Z,1.95
2023-02-24T20:10:02.480Z,1.73
2023-02-24T20:11:08.795Z,1.77
2023-02-24T20:12:13.930Z,2.95
2023-02-24T20:13:20.974Z,2.10
2023-02-24T20:14:23.157Z,2.10
2023-02-24T20:15:28.335Z,2.00
2023-02-24T20:16:38.624Z,2.10
2023-02-24T20:17:43.380Z,2.30
2023-02-24T20:18:45.212Z,2.30
2023-02-24T20:19:51.889Z,2.00
2023-02-24T20:21:06.330Z,2.08
2023-02-24T20:22:11.528Z,2.38
2023-02-24T20:23:15.483Z,3.75
2023-02-24T20:24:18.353Z,3.65
2023-02-24T20:25:23.741Z,3.03
2023-02-24T20:26:26.669Z,2.42
2023-02-24T20:27:30.496Z,2.70
2023-02-24T20:28:36.119Z,2.90
2023-02-24T20:29:40.018Z,2.92
